createdAt,value
2023-08-12T00:01:18.965Z,13.13
2023-08-12T00:03:48.783Z,13.05
2023-08-12T00:06:18.247Z,13.07
2023-08-12T00:08:46.411Z,13.02
2023-08-12T00:11:15.184Z,13.09
2023-08-12T00:13:43.386Z,13.09
2023-08-12T00:16:13.739Z,13.06
2023-08-12T00:18:42.170Z,13.02
2023-08-12T00:21:12.443Z,12.86
2023-08-12T00:23:42.575Z,12.79
2023-08-12T00:26:11.316Z,12.67
2023-08-12T00:28:40.111Z,12.60
2023-08-12T00:31:08.592Z,12.60
2023-08-12T00:33:37.136Z,12.49
2023-08-12T00:36:06.005Z,12.53
2023-08-12T00:38:36.666Z,12.58
2023-08-12T00:41:06.051Z,12.61
2023-08-12T00:43:37.340Z,12.55
2023-08-12T00:46:06.930Z,12.53
2023-08-12T00:48:35.987Z,12.54
2023-08-12T00:51:29.058Z,12.58
2023-08-12T00:56:54.287Z,12.49
2023-08-12T00:59:28.253Z,12.42
2023-08-12T01:01:57.029Z,12.41
2023-08-12T01:07:20.032Z,12.32
2023-08-12T01:09:52.125Z,12.31
2023-08-12T01:12:29.481Z,12.35
2023-08-12T01:18:01.445Z,12.39
2023-08-12T01:20:31.990Z,12.33
2023-08-12T01:26:04.738Z,12.25
2023-08-12T01:28:34.115Z,12.20
2023-08-12T01:31:11.531Z,12.11
2023-08-12T01:33:45.895Z,11.99
2023-08-12T01:36:18.785Z,12.20
2023-08-12T01:38:53.262Z,12.20
2023-08-12T01:41:27.404Z,12.17
2023-08-12T01:43:56.069Z,12.17
2023-08-12T01:46:24.447Z,12.16
2023-08-12T01:48:53.468Z,12.12
2023-08-12T01:51:23.222Z,12.14
2023-08-12T01:53:54.752Z,12.13
2023-08-12T01:56:22.959Z,12.03
2023-08-12T01:58:54.098Z,12.16
2023-08-12T02:01:22.392Z,12.07
2023-08-12T02:03:51.282Z,12.00
2023-08-12T02:06:20.798Z,12.03
2023-08-12T02:08:49.663Z,12.06
2023-08-12T02:11:20.648Z,12.02
2023-08-12T02:13:49.518Z,12.04
2023-08-12T02:16:17.840Z,12.05
2023-08-12T02:18:46.578Z,12.06
2023-08-12T02:21:17.769Z,12.12
2023-08-12T02:23:46.529Z,12.11
2023-08-12T02:26:15.587Z,12.09
2023-08-12T02:28:46.520Z,12.08
2023-08-12T02:43:01.666Z,12.02
2023-08-12T02:45:31.332Z,12.05
2023-08-12T02:47:59.899Z,12.09
2023-08-12T02:50:28.191Z,12.09
2023-08-12T02:52:58.434Z,12.06
2023-08-12T02:55:26.944Z,11.96
2023-08-12T02:57:55.961Z,12.00
2023-08-12T03:00:24.300Z,12.00
2023-08-12T03:02:55.063Z,11.95
2023-08-12T03:05:23.901Z,11.87
2023-08-12T03:07:54.254Z,11.90
2023-08-12T03:10:22.457Z,11.94
2023-08-12T03:12:54.881Z,11.96
2023-08-12T03:15:23.373Z,12.06
2023-08-12T03:17:54.139Z,12.10
2023-08-12T03:20:25.516Z,11.93
2023-08-12T03:22:54.415Z,12.16
2023-08-12T03:25:23.375Z,12.18
2023-08-12T03:27:52.037Z,12.22
2023-08-12T03:30:20.375Z,12.31
2023-08-12T03:32:50.277Z,12.35
2023-08-12T03:35:20.438Z,12.39
2023-08-12T03:40:41.098Z,12.44
2023-08-12T03:43:35.733Z,12.54
2023-08-12T03:46:04.267Z,12.53
2023-08-12T03:48:37.926Z,12.54
2023-08-12T03:51:10.320Z,12.60
2023-08-12T03:53:39.649Z,12.66
2023-08-12T03:56:07.993Z,12.65
2023-08-12T03:58:36.863Z,12.80
2023-08-12T04:01:05.742Z,12.82
2023-08-12T04:03:34.400Z,12.84
2023-08-12T04:06:03.387Z,12.89
2023-08-12T04:08:34.808Z,12.86
2023-08-12T04:11:03.212Z,12.93
2023-08-12T04:13:31.690Z,12.79
2023-08-12T04:16:00.162Z,13.02
2023-08-12T04:18:28.729Z,13.13
2023-08-12T04:20:58.984Z,13.20
2023-08-12T04:23:27.503Z,13.24
2023-08-12T04:25:58.453Z,13.35
2023-08-12T04:28:26.930Z,13.57
2023-08-12T04:30:55.218Z,13.68
2023-08-12T04:33:24.051Z,13.87
2023-08-12T04:35:52.233Z,13.75
2023-08-12T04:38:21.503Z,14.25
2023-08-12T04:40:49.829Z,14.39
2023-08-12T04:43:20.897Z,14.81
2023-08-12T04:45:49.521Z,15.06
2023-08-12T04:48:18.473Z,15.55
2023-08-12T04:50:46.699Z,15.95
2023-08-12T04:53:16.260Z,16.02
2023-08-12T04:55:46.363Z,16.10
2023-08-12T04:58:16.338Z,16.27
2023-08-12T05:00:46.031Z,16.32
2023-08-12T05:03:15.219Z,16.48
2023-08-12T05:05:43.472Z,16.60
2023-08-12T05:08:14.107Z,16.81
2023-08-12T05:10:42.288Z,16.92
2023-08-12T05:13:11.281Z,16.86
2023-08-12T05:15:39.454Z,16.94
2023-08-12T05:18:09.345Z,17.04
2023-08-12T05:20:37.895Z,17.12
2023-08-12T05:23:06.788Z,17.31
2023-08-12T05:25:34.975Z,17.49
2023-08-12T05:28:03.899Z,17.62
2023-08-12T05:30:32.179Z,17.82
2023-08-12T05:33:00.780Z,17.95
2023-08-12T05:35:34.111Z,18.12
2023-08-12T05:38:03.094Z,18.21
2023-08-12T05:40:36.401Z,18.22
2023-08-12T05:43:05.357Z,18.11
2023-08-12T05:45:35.579Z,18.19
2023-08-12T05:48:04.215Z,18.13
2023-08-12T05:50:33.851Z,18.08
2023-08-12T05:53:03.091Z,17.93
2023-08-12T05:55:31.391Z,17.96
2023-08-12T05:58:00.632Z,18.05
2023-08-12T06:00:28.816Z,18.12
2023-08-12T06:02:57.598Z,18.13
2023-08-12T06:05:25.912Z,18.20
2023-08-12T06:07:57.776Z,18.36
2023-08-12T06:10:26.034Z,18.49
2023-08-12T06:12:59.568Z,18.66
2023-08-12T06:15:27.888Z,18.80
2023-08-12T06:17:58.206Z,18.75
2023-08-12T06:20:26.733Z,18.93
2023-08-12T06:22:57.093Z,19.11
2023-08-12T06:25:25.274Z,19.27
2023-08-12T06:27:56.827Z,19.44
2023-08-12T06:30:25.231Z,19.56
2023-08-12T06:32:54.577Z,19.76
2023-08-12T06:35:23.078Z,19.85
2023-08-12T06:37:52.928Z,19.98
2023-08-12T06:40:22.811Z,20.25
2023-08-12T06:42:54.038Z,20.25
2023-08-12T06:45:22.302Z,20.27
2023-08-12T06:47:51.341Z,20.28
2023-08-12T06:50:20.356Z,20.50
2023-08-12T06:52:48.740Z,20.64
2023-08-12T06:55:17.642Z,20.89
2023-08-12T06:57:47.999Z,21.20
2023-08-12T07:00:16.660Z,21.49
2023-08-12T07:02:45.514Z,21.74
2023-08-12T07:05:13.863Z,21.96
2023-08-12T07:07:42.429Z,22.08
2023-08-12T07:10:11.089Z,22.06
2023-08-12T07:12:39.643Z,22.13
2023-08-12T07:15:12.136Z,22.33
2023-08-12T07:17:40.667Z,22.51
2023-08-12T07:20:10.145Z,22.71
2023-08-12T07:22:41.496Z,22.95
2023-08-12T07:25:12.273Z,23.40
2023-08-12T07:27:41.696Z,23.70
2023-08-12T07:30:13.197Z,23.79
2023-08-12T07:32:42.152Z,23.75
2023-08-12T07:35:12.628Z,23.79
2023-08-12T07:37:41.169Z,23.81
2023-08-12T07:40:12.586Z,24.01
2023-08-12T07:42:41.209Z,24.03
2023-08-12T07:45:13.347Z,23.99
2023-08-12T07:47:44.997Z,24.43
2023-08-12T07:50:13.351Z,24.51
2023-08-12T07:52:42.150Z,24.84
2023-08-12T07:55:10.999Z,24.74
2023-08-12T07:57:40.092Z,24.97
2023-08-12T08:00:11.037Z,25.11
2023-08-12T08:02:41.988Z,25.21
2023-08-12T08:05:10.859Z,25.27
2023-08-12T08:07:42.268Z,24.98
2023-08-12T08:10:11.625Z,25.12
2023-08-12T08:12:42.816Z,24.94
2023-08-12T08:15:11.612Z,25.00
2023-08-12T08:17:42.748Z,24.94
2023-08-12T08:20:12.386Z,24.97
2023-08-12T08:22:41.813Z,24.86
2023-08-12T08:25:12.254Z,24.90
2023-08-12T08:27:43.591Z,24.73
2023-08-12T08:30:14.510Z,24.89
2023-08-12T08:32:44.664Z,24.94
2023-08-12T08:35:12.941Z,25.12
2023-08-12T08:37:45.021Z,25.19
2023-08-12T08:40:13.652Z,25.04
2023-08-12T08:42:45.360Z,25.05
2023-08-12T08:45:15.912Z,25.04
2023-08-12T08:47:47.556Z,25.06
2023-08-12T08:50:16.731Z,24.97
2023-08-12T08:52:45.826Z,24.89
2023-08-12T08:55:18.100Z,24.85
2023-08-12T08:57:48.478Z,24.82
2023-08-12T09:00:18.440Z,24.80
2023-08-12T09:02:50.723Z,24.69
2023-08-12T09:05:19.972Z,24.39
2023-08-12T09:07:50.415Z,24.25
2023-08-12T09:10:22.377Z,24.28
2023-08-12T09:12:54.207Z,24.07
2023-08-12T09:15:22.415Z,23.97
2023-08-12T09:17:52.408Z,24.02
2023-08-12T09:20:25.129Z,24.09
2023-08-12T09:22:58.939Z,24.00
2023-08-12T09:25:27.937Z,24.00
2023-08-12T09:27:57.892Z,23.88
2023-08-12T09:30:26.488Z,24.07
2023-08-12T09:33:13.198Z,24.01
2023-08-12T09:35:43.484Z,23.97
2023-08-12T09:38:16.968Z,23.95
2023-08-12T09:40:46.189Z,23.88
2023-08-12T09:43:16.446Z,23.80
2023-08-12T09:45:47.140Z,23.98
2023-08-12T09:48:19.161Z,24.09
2023-08-12T09:50:47.732Z,24.16
2023-08-12T09:53:17.301Z,24.17
2023-08-12T09:55:51.592Z,24.18
2023-08-12T09:58:22.032Z,24.33
2023-08-12T10:00:51.455Z,24.38
2023-08-12T10:03:23.143Z,24.44
2023-08-12T10:05:52.146Z,24.31
2023-08-12T10:08:21.437Z,24.64
2023-08-12T10:10:56.264Z,24.67
2023-08-12T10:13:38.239Z,24.64
2023-08-12T10:16:07.336Z,24.80
2023-08-12T10:18:39.197Z,24.93
2023-08-12T10:21:10.969Z,25.08
2023-08-12T10:23:40.225Z,25.04
2023-08-12T10:26:09.161Z,25.00
2023-08-12T10:28:39.166Z,25.08
2023-08-12T10:31:08.720Z,25.20
2023-08-12T10:33:40.241Z,25.15
2023-08-12T10:36:10.066Z,24.86
2023-08-12T10:38:39.242Z,24.86
2023-08-12T10:41:23.260Z,25.03
2023-08-12T10:43:55.067Z,25.27
2023-08-12T10:46:33.005Z,25.21
2023-08-12T10:49:06.620Z,25.10
2023-08-12T10:51:48.352Z,25.29
2023-08-12T10:54:28.412Z,25.34
2023-08-12T10:57:16.548Z,25.35
2023-08-12T10:59:58.878Z,25.42
2023-08-12T11:02:31.372Z,25.57
2023-08-12T11:05:06.891Z,25.77
2023-08-12T11:07:37.506Z,25.91
2023-08-12T11:10:15.454Z,26.04
2023-08-12T11:12:50.270Z,26.08
2023-08-12T11:15:19.711Z,26.08
2023-08-12T11:17:50.517Z,26.05
2023-08-12T11:20:24.054Z,26.09
2023-08-12T11:22:53.224Z,26.29
2023-08-12T11:25:21.838Z,26.47
2023-08-12T11:27:50.822Z,26.52
2023-08-12T11:30:20.516Z,26.53
2023-08-12T11:32:50.351Z,26.49
2023-08-12T11:35:19.599Z,26.52
2023-08-12T11:37:51.146Z,26.67
2023-08-12T11:40:20.134Z,26.54
2023-08-12T11:42:50.472Z,26.61
2023-08-12T11:45:20.563Z,26.66
2023-08-12T11:47:54.435Z,26.69
2023-08-12T11:50:25.462Z,26.71
2023-08-12T11:52:55.846Z,26.54
2023-08-12T11:55:25.297Z,26.72
2023-08-12T11:57:57.568Z,26.91
2023-08-12T12:00:30.196Z,26.89
2023-08-12T12:02:58.810Z,26.95
2023-08-12T12:05:31.784Z,27.06
2023-08-12T12:08:02.796Z,27.18
2023-08-12T12:10:35.453Z,27.34
2023-08-12T12:13:06.861Z,27.38
2023-08-12T12:15:43.963Z,27.46
2023-08-12T12:18:13.055Z,27.55
2023-08-12T12:20:55.673Z,27.58
2023-08-12T12:23:33.021Z,27.64
2023-08-12T12:26:02.903Z,27.65
2023-08-12T12:28:31.851Z,27.64
2023-08-12T12:31:00.624Z,27.84
2023-08-12T12:33:30.622Z,27.90
2023-08-12T12:36:00.565Z,27.93
2023-08-12T12:38:32.262Z,27.96
2023-08-12T12:41:01.110Z,27.83
2023-08-12T12:43:29.413Z,27.74
2023-08-12T12:45:58.284Z,27.75
2023-08-12T12:48:26.733Z,27.82
2023-08-12T12:50:55.388Z,28.03
2023-08-12T12:53:26.917Z,27.84
2023-08-12T12:55:57.502Z,28.08
2023-08-12T12:58:26.268Z,28.30
2023-08-12T13:00:54.562Z,28.36
2023-08-12T13:03:24.637Z,28.39
2023-08-12T13:05:54.747Z,28.27
2023-08-12T13:08:23.092Z,28.31
2023-08-12T13:10:51.996Z,28.37
2023-08-12T13:13:23.692Z,28.42
2023-08-12T13:15:52.203Z,28.53
2023-08-12T13:18:20.529Z,28.66
2023-08-12T13:20:49.480Z,28.90
2023-08-12T13:23:17.835Z,28.89
2023-08-12T13:25:47.462Z,28.99
2023-08-12T13:28:15.760Z,29.15
2023-08-12T13:30:49.468Z,29.14
2023-08-12T13:33:17.605Z,29.09
2023-08-12T13:35:46.203Z,29.26
2023-08-12T13:38:15.793Z,29.31
2023-08-12T13:40:44.253Z,29.55
2023-08-12T13:43:12.679Z,29.58
2023-08-12T13:45:41.166Z,29.50
2023-08-12T13:48:12.257Z,29.03
2023-08-12T13:50:41.107Z,29.10
2023-08-12T13:53:09.645Z,28.85
2023-08-12T13:55:38.130Z,29.14
2023-08-12T13:58:06.544Z,29.39
2023-08-12T14:00:36.432Z,29.63
2023-08-12T14:03:06.469Z,29.83
2023-08-12T14:05:38.977Z,29.73
2023-08-12T14:08:09.012Z,29.34
2023-08-12T14:10:37.996Z,29.15
2023-08-12T14:13:07.969Z,29.31
2023-08-12T14:15:37.961Z,29.04
2023-08-12T14:18:07.025Z,29.06
2023-08-12T14:20:37.154Z,28.86
2023-08-12T14:23:05.851Z,28.92
2023-08-12T14:25:37.726Z,29.03
2023-08-12T14:28:07.054Z,29.03
2023-08-12T14:30:37.570Z,29.04
2023-08-12T14:33:07.124Z,28.94
2023-08-12T14:35:38.355Z,28.86
2023-08-12T14:38:06.935Z,28.79
2023-08-12T14:40:36.397Z,28.52
2023-08-12T14:43:04.880Z,28.27
2023-08-12T14:45:33.662Z,28.16
2023-08-12T14:48:02.342Z,28.31
2023-08-12T14:50:35.479Z,28.22
2023-08-12T14:53:06.241Z,28.20
2023-08-12T14:55:34.726Z,28.26
2023-08-12T14:58:02.969Z,28.15
2023-08-12T15:00:35.193Z,27.79
2023-08-12T15:03:04.478Z,27.60
2023-08-12T15:05:34.123Z,27.35
2023-08-12T15:08:04.966Z,27.35
2023-08-12T15:10:37.346Z,27.35
2023-08-12T15:13:05.944Z,27.26
2023-08-12T15:15:34.688Z,27.19
2023-08-12T15:18:05.054Z,27.24
2023-08-12T15:20:33.556Z,27.50
2023-08-12T15:23:02.378Z,27.59
2023-08-12T15:25:30.951Z,27.69
2023-08-12T15:28:01.112Z,27.82
2023-08-12T15:30:31.174Z,27.80
2023-08-12T15:33:01.411Z,27.86
2023-08-12T15:35:30.383Z,27.90
2023-08-12T15:37:59.307Z,27.89
2023-08-12T15:40:27.877Z,27.89
2023-08-12T15:42:56.475Z,27.85
2023-08-12T15:45:26.411Z,27.81
2023-08-12T15:47:56.393Z,27.72
2023-08-12T15:50:25.820Z,27.37
2023-08-12T15:52:54.285Z,27.42
2023-08-12T15:55:22.912Z,27.36
2023-08-12T15:57:51.556Z,27.26
2023-08-12T16:00:25.513Z,27.22
2023-08-12T16:02:55.806Z,27.08
2023-08-12T16:05:25.650Z,26.93
2023-08-12T16:07:53.995Z,26.74
2023-08-12T16:10:22.640Z,26.60
2023-08-12T16:12:51.971Z,26.39
2023-08-12T16:15:20.734Z,26.10
2023-08-12T16:17:49.238Z,25.99
2023-08-12T16:20:19.357Z,26.04
2023-08-12T16:22:49.237Z,25.87
2023-08-12T16:25:19.596Z,25.68
2023-08-12T16:27:49.445Z,25.55
2023-08-12T16:30:20.215Z,25.55
2023-08-12T16:32:51.070Z,25.55
2023-08-12T16:35:20.889Z,25.47
2023-08-12T16:37:49.468Z,25.35
2023-08-12T16:40:18.124Z,25.26
2023-08-12T16:42:47.417Z,25.29
2023-08-12T16:45:15.932Z,25.32
2023-08-12T16:47:46.581Z,25.43
2023-08-12T16:50:27.474Z,25.54
2023-08-12T16:52:56.068Z,25.62
2023-08-12T16:55:24.621Z,25.66
2023-08-12T16:57:54.188Z,25.81
2023-08-12T17:00:22.959Z,25.70
2023-08-12T17:02:52.957Z,25.59
2023-08-12T17:05:21.564Z,25.67
2023-08-12T17:07:51.869Z,25.67
2023-08-12T17:10:21.137Z,25.39
2023-08-12T17:12:50.020Z,25.27
2023-08-12T17:15:18.909Z,25.24
2023-08-12T17:17:50.508Z,25.05
2023-08-12T17:20:20.160Z,24.90
2023-08-12T17:22:48.353Z,24.82
2023-08-12T17:25:18.876Z,24.73
2023-08-12T17:27:47.121Z,24.68
2023-08-12T17:30:16.685Z,24.44
2023-08-12T17:32:44.912Z,24.50
2023-08-12T17:35:14.794Z,24.43
2023-08-12T17:37:43.352Z,24.28
2023-08-12T17:40:13.601Z,24.30
2023-08-12T17:42:43.719Z,24.28
2023-08-12T17:45:12.481Z,23.97
2023-08-12T17:47:42.542Z,23.80
2023-08-12T17:50:14.316Z,23.70
2023-08-12T17:52:42.952Z,23.42
2023-08-12T17:55:11.489Z,23.43
2023-08-12T17:57:42.050Z,23.36
2023-08-12T18:00:14.109Z,23.28
2023-08-12T18:02:44.899Z,23.26
2023-08-12T18:05:13.887Z,23.22
2023-08-12T18:07:42.319Z,23.09
2023-08-12T18:10:12.013Z,23.04
2023-08-12T18:12:40.245Z,22.93
2023-08-12T18:15:09.787Z,22.90
2023-08-12T18:17:39.461Z,22.78
2023-08-12T18:20:12.057Z,22.68
2023-08-12T18:22:40.263Z,22.86
2023-08-12T18:25:10.399Z,22.75
2023-08-12T18:27:38.656Z,22.57
2023-08-12T18:30:09.649Z,22.48
2023-08-12T18:32:40.162Z,22.40
2023-08-12T18:35:09.441Z,22.38
2023-08-12T18:37:37.728Z,22.34
2023-08-12T18:40:11.226Z,22.24
2023-08-12T18:42:39.582Z,22.18
2023-08-12T18:45:09.496Z,22.11
2023-08-12T18:47:39.271Z,22.03
2023-08-12T18:50:09.544Z,22.07
2023-08-12T18:52:37.800Z,21.91
2023-08-12T18:55:09.162Z,21.84
2023-08-12T18:57:37.422Z,21.77
2023-08-12T19:00:07.188Z,21.69
2023-08-12T19:02:37.038Z,21.81
2023-08-12T19:05:09.386Z,21.77
2023-08-12T19:07:38.104Z,21.72
2023-08-12T19:10:07.795Z,21.64
2023-08-12T19:12:36.094Z,21.61
2023-08-12T19:15:06.364Z,21.55
2023-08-12T19:17:35.432Z,21.55
2023-08-12T19:20:05.902Z,21.67
2023-08-12T19:22:35.617Z,21.65
2023-08-12T19:25:08.103Z,21.61
2023-08-12T19:27:36.369Z,21.59
2023-08-12T19:30:05.917Z,21.56
2023-08-12T19:32:36.070Z,21.52
2023-08-12T19:35:05.559Z,21.40
2023-08-12T19:37:35.290Z,21.37
2023-08-12T19:40:04.014Z,21.36
2023-08-12T19:42:32.617Z,21.38
2023-08-12T19:45:02.922Z,21.37
2023-08-12T19:47:32.212Z,21.29
2023-08-12T19:50:05.696Z,21.28
2023-08-12T19:52:36.357Z,21.26
2023-08-12T19:55:05.071Z,21.22
2023-08-12T19:57:36.291Z,21.20
2023-08-12T20:00:06.188Z,21.19
2023-08-12T20:02:39.914Z,21.08
2023-08-12T20:05:17.308Z,21.19
2023-08-12T20:07:49.219Z,21.16
2023-08-12T20:10:20.173Z,21.04
2023-08-12T20:12:49.538Z,21.00
2023-08-12T20:15:18.454Z,21.01
2023-08-12T20:17:47.829Z,20.99
2023-08-12T20:20:18.537Z,20.92
2023-08-12T20:23:04.639Z,20.93
2023-08-12T20:25:37.994Z,20.92
2023-08-12T20:28:07.262Z,20.87
2023-08-12T20:30:37.528Z,20.85
2023-08-12T20:33:07.669Z,20.83
2023-08-12T20:35:36.331Z,20.88
2023-08-12T20:38:06.669Z,20.84
2023-08-12T20:40:35.192Z,20.85
2023-08-12T20:43:04.765Z,20.83
2023-08-12T20:45:33.368Z,20.70
2023-08-12T20:48:02.644Z,20.70
2023-08-12T20:50:31.216Z,20.71
2023-08-12T20:53:01.104Z,20.69
2023-08-12T20:55:31.087Z,20.67
2023-08-12T20:58:01.769Z,20.65
2023-08-12T21:00:30.650Z,20.66
2023-08-12T21:02:58.957Z,20.60
2023-08-12T21:05:28.658Z,20.58
2023-08-12T21:07:56.968Z,20.53
2023-08-12T21:10:26.217Z,20.57
2023-08-12T21:12:55.750Z,20.52
2023-08-12T21:15:24.837Z,20.48
2023-08-12T21:17:55.810Z,20.45
2023-08-12T21:20:26.128Z,20.38
2023-08-12T21:22:54.382Z,20.43
2023-08-12T21:25:22.855Z,20.35
2023-08-12T21:27:51.225Z,20.36
2023-08-12T21:30:21.403Z,20.35
2023-08-12T21:32:51.173Z,20.42
2023-08-12T21:35:19.846Z,20.44
2023-08-12T21:37:49.414Z,20.35
2023-08-12T21:40:18.046Z,20.29
2023-08-12T21:42:48.327Z,20.40
2023-08-12T21:45:17.010Z,20.38
2023-08-12T21:47:47.374Z,20.39
2023-08-12T21:50:16.370Z,20.33
2023-08-12T21:52:45.282Z,20.31
2023-08-12T21:55:14.633Z,20.17
2023-08-12T21:57:43.078Z,20.22
2023-08-12T22:00:16.396Z,20.16
2023-08-12T22:02:47.726Z,20.04
2023-08-12T22:05:19.560Z,19.91
2023-08-12T22:07:49.223Z,19.86
2023-08-12T22:10:18.737Z,19.74
2023-08-12T22:12:47.067Z,19.62
2023-08-12T22:15:16.510Z,19.58
2023-08-12T22:17:45.600Z,19.44
2023-08-12T22:20:16.961Z,19.37
2023-08-12T22:22:49.898Z,19.29
2023-08-12T22:25:18.432Z,19.21
2023-08-12T22:27:46.628Z,19.41
2023-08-12T22:30:15.526Z,19.37
2023-08-12T22:32:45.160Z,19.42
2023-08-12T22:35:15.258Z,19.46
2023-08-12T22:37:43.569Z,19.46
2023-08-12T22:40:13.487Z,19.49
2023-08-12T22:42:42.844Z,19.63
2023-08-12T22:45:11.272Z,19.63
2023-08-12T22:47:39.882Z,19.61
2023-08-12T22:50:11.252Z,19.56
2023-08-12T22:52:39.716Z,19.49
2023-08-12T22:55:09.241Z,19.39
2023-08-12T22:57:39.335Z,19.38
2023-08-12T23:00:09.348Z,19.39
2023-08-12T23:02:38.024Z,19.35
2023-08-12T23:05:07.734Z,19.31
2023-08-12T23:07:36.302Z,19.29
2023-08-12T23:10:05.863Z,19.28
2023-08-12T23:12:34.134Z,19.31
2023-08-12T23:15:06.106Z,19.31
2023-08-12T23:17:34.352Z,19.41
2023-08-12T23:20:03.325Z,19.46
2023-08-12T23:22:32.276Z,19.45
2023-08-12T23:25:00.816Z,19.48
2023-08-12T23:27:29.079Z,19.51
2023-08-12T23:29:57.794Z,19.56
2023-08-12T23:32:27.469Z,19.58
2023-08-12T23:34:56.659Z,19.59
2023-08-12T23:37:25.080Z,19.61
2023-08-12T23:39:54.424Z,19.55
2023-08-12T23:42:22.804Z,19.48
2023-08-12T23:44:53.720Z,19.45
2023-08-12T23:47:22.055Z,19.48
2023-08-12T23:49:54.993Z,19.45
2023-08-12T23:52:23.213Z,19.48
2023-08-12T23:54:54.430Z,19.54
2023-08-12T23:57:22.591Z,19.52
2023-08-12T23:59:51.697Z,19.62
